Terminal Aerodrome Forecast
Issued by NWS

Home | Current Version | Previous Version | Text Only | Print | Product List | Glossary On
Versions: 1 2 3 4 5 6 7 8 9 10 11 12
280
FTUS45 KRIW 211722
TAFBPI
TAF
KBPI 211722Z 2118/2218 VRB04KT P6SM SCT080
     FM211900 20008KT P6SM VCTS SCT060CB BKN130
     FM220200 33008KT P6SM VCTS SCT050CB BKN100
     FM220700 35005KT P6SM SCT100
     FM221500 14005KT P6SM BKN100=

USA.gov is the U.S. government's official web portal to all federal, state and local government web resources and services.